Time;durP1;ratioP1;P1;durP2;ratioP2;P2;SDS_P1;SDS_P2;PMS_P1;PMS_P2;Temp;Humidity;BMP_temperature;BMP_pressure;BME280_temperature;BME280_humidity;BME280_pressure;Samples;Min_cycle;Max_cycle;Signal;HPM_P1;HPM_P2
2021/04/29 00:04:17;;;;;;;5.53;3.83;;;;;;;11.05;57.27;96506.63;10417682;28;20099;-73
2021/04/29 00:09:37;;;;;;;8.70;4.88;;;;;;;10.96;57.58;96504.06;10444904;28;20053;-73
2021/04/29 00:14:57;;;;;;;4.53;3.75;;;;;;;10.92;57.31;96513.00;10431070;28;20041;-73
2021/04/29 00:20:20;;;;;;;5.65;3.38;;;;;;;10.89;57.06;96511.44;10430824;28;20041;-73
2021/04/29 00:25:41;;;;;;;6.35;3.88;;;;;;;10.87;58.23;96502.97;10430809;28;20041;-73
2021/04/29 00:31:01;;;;;;;4.88;3.70;;;;;;;10.80;58.13;96501.25;10444432;28;20487;-73
2021/04/29 00:36:21;;;;;;;5.60;3.50;;;;;;;10.76;57.98;96507.38;10429513;28;20036;-73
2021/04/29 00:41:42;;;;;;;5.25;3.83;;;;;;;10.70;58.91;96504.28;10416245;28;20044;-73
2021/04/29 00:47:02;;;;;;;4.13;3.58;;;;;;;10.61;58.93;96505.25;10429742;28;20049;-73
2021/04/29 00:52:23;;;;;;;8.13;4.60;;;;;;;10.56;59.22;96498.75;10429433;28;20052;-73
2021/04/29 00:57:43;;;;;;;5.72;3.90;;;;;;;10.53;59.14;96516.75;10443103;28;20499;-73
2021/04/29 01:03:14;;;;;;;5.97;4.05;;;;;;;10.56;59.80;96512.72;10414989;28;20443;-73
2021/04/29 01:08:40;;;;;;;7.38;4.13;;;;;;;10.52;59.16;96495.78;10429877;28;20530;-73
2021/04/29 01:14:04;;;;;;;6.25;4.13;;;;;;;10.43;60.15;96501.63;10429062;28;20102;-73
2021/04/29 01:19:51;;;;;;;7.10;4.35;;;;;;;10.43;59.97;96496.75;10415011;28;20052;-73
2021/04/29 01:25:14;;;;;;;5.75;4.03;;;;;;;10.58;59.55;96495.34;10428453;28;20052;-72
2021/04/29 01:30:35;;;;;;;6.20;4.38;;;;;;;10.67;60.34;96499.25;10428437;28;20059;-73
2021/04/29 01:35:56;;;;;;;7.57;4.28;;;;;;;10.76;59.79;96492.69;10414329;28;20041;-72
2021/04/29 01:41:16;;;;;;;6.95;4.03;;;;;;;10.82;59.31;96496.50;10414233;28;20072;-73
2021/04/29 01:46:36;;;;;;;7.00;4.47;;;;;;;10.80;59.49;96487.28;10426973;28;20098;-73
2021/04/29 01:51:57;;;;;;;6.20;4.57;;;;;;;10.68;60.20;96497.91;10427742;28;20041;-73
2021/04/29 01:57:19;;;;;;;7.82;4.47;;;;;;;10.51;60.81;96496.41;10414023;28;20095;-73
2021/04/29 02:02:39;;;;;;;6.57;4.47;;;;;;;10.45;60.64;96488.47;10413880;28;20381;-73
2021/04/29 02:08:00;;;;;;;6.35;4.18;;;;;;;10.41;61.10;96488.25;10413614;28;20049;-73
2021/04/29 02:13:20;;;;;;;6.60;4.40;;;;;;;10.50;60.36;96492.88;10427582;28;20041;-73
2021/04/29 02:18:47;;;;;;;6.07;4.35;;;;;;;10.60;60.37;96492.66;10427027;28;20048;-73
2021/04/29 02:24:10;;;;;;;8.00;4.72;;;;;;;10.62;60.70;96486.47;10427408;28;20052;-73
2021/04/29 02:29:31;;;;;;;6.70;4.57;;;;;;;10.60;61.04;96479.41;10399799;28;20037;-73
2021/04/29 02:34:52;;;;;;;9.57;5.40;;;;;;;10.64;60.72;96475.38;10413111;28;20041;-73
2021/04/29 02:40:13;;;;;;;8.20;5.15;;;;;;;10.65;60.56;96474.75;10413121;28;20041;-73
2021/04/29 02:45:53;;;;;;;8.38;4.90;;;;;;;10.65;60.68;96462.88;10421321;28;20470;-73
2021/04/29 02:51:14;;;;;;;7.75;5.30;;;;;;;10.62;60.87;96464.13;10426627;28;20041;-73
2021/04/29 02:56:41;;;;;;;8.35;5.35;;;;;;;10.65;60.72;96462.88;10414701;28;20048;-73
2021/04/29 03:02:01;;;;;;;8.50;5.28;;;;;;;10.63;60.88;96460.72;10406446;28;20048;-73
2021/04/29 03:07:23;;;;;;;11.63;5.30;;;;;;;10.53;61.21;96465.81;10433897;28;20063;-74
2021/04/29 03:12:43;;;;;;;6.85;5.03;;;;;;;10.47;61.13;96469.03;10419615;28;20041;-73
2021/04/29 03:18:04;;;;;;;10.38;5.40;;;;;;;10.46;61.28;96469.66;10433395;28;20451;-73
2021/04/29 03:23:34;;;;;;;7.80;5.75;;;;;;;10.50;61.35;96467.78;10435784;28;20041;-73
2021/04/29 03:28:54;;;;;;;9.73;5.47;;;;;;;10.51;61.47;96460.13;10432943;28;20573;-73
2021/04/29 03:34:14;;;;;;;10.23;5.80;;;;;;;10.56;61.06;96468.06;10446764;28;20041;-73
2021/04/29 03:39:35;;;;;;;8.05;5.72;;;;;;;10.51;61.34;96469.22;10427683;28;20041;-72
2021/04/29 03:44:55;;;;;;;7.93;5.70;;;;;;;10.40;61.72;96464.50;10421661;28;20037;-73
2021/04/29 03:50:18;;;;;;;8.75;5.45;;;;;;;10.36;61.32;96472.69;10438053;28;20037;-74
2021/04/29 03:55:39;;;;;;;10.60;5.75;;;;;;;10.44;61.37;96475.16;10436616;28;20048;-74
2021/04/29 04:00:59;;;;;;;9.55;6.43;;;;;;;10.45;61.38;96479.38;10436717;28;20049;-73
2021/04/29 04:06:19;;;;;;;9.00;5.65;;;;;;;10.45;61.60;96474.53;10433765;28;20052;-73
2021/04/29 04:11:42;;;;;;;9.32;6.07;;;;;;;10.42;62.27;96478.56;10453035;28;20036;-73
2021/04/29 04:17:02;;;;;;;8.82;6.38;;;;;;;10.40;62.06;96474.94;10482878;28;20044;-73
2021/04/29 04:22:23;;;;;;;9.35;6.82;;;;;;;10.43;62.33;96473.72;10446641;28;20052;-73
2021/04/29 04:27:43;;;;;;;7.35;5.97;;;;;;;10.41;61.89;96488.25;10467753;28;20407;-73
2021/04/29 04:33:04;;;;;;;11.07;6.15;;;;;;;10.57;62.37;96486.25;10470977;28;20059;-73
2021/04/29 04:38:24;;;;;;;9.40;6.45;;;;;;;10.79;62.32;96488.63;10457464;28;20048;-72
2021/04/29 04:43:44;;;;;;;8.07;6.20;;;;;;;11.07;61.93;96514.34;10470214;28;20044;-73
2021/04/29 04:49:04;;;;;;;9.60;6.30;;;;;;;11.49;61.44;96523.22;10470676;28;20049;-72
2021/04/29 04:54:26;;;;;;;9.07;6.25;;;;;;;11.74;60.90;96529.22;10456508;28;20100;-72
2021/04/29 04:59:47;;;;;;;8.63;6.47;;;;;;;11.88;60.39;96534.75;10484630;28;20048;-73
2021/04/29 05:05:08;;;;;;;9.07;6.55;;;;;;;11.69;60.05;96529.72;10470401;28;20048;-73
2021/04/29 05:10:30;;;;;;;11.40;6.47;;;;;;;11.60;60.18;96533.50;10470483;28;20447;-73
2021/04/29 05:15:50;;;;;;;10.57;6.50;;;;;;;11.61;60.19;96529.34;10484122;28;20059;-73
2021/04/29 05:21:10;;;;;;;11.15;5.97;;;;;;;11.45;60.02;96529.34;10483928;28;20476;-73
2021/04/29 05:26:31;;;;;;;9.90;5.70;;;;;;;11.37;60.37;96526.19;10469794;28;20047;-73
2021/04/29 05:31:51;;;;;;;8.43;6.10;;;;;;;11.26;60.44;96516.63;10455828;28;20098;-73
2021/04/29 05:37:11;;;;;;;9.73;6.25;;;;;;;11.26;60.70;96521.50;10469598;28;20059;-73
2021/04/29 05:42:32;;;;;;;8.85;5.93;;;;;;;11.13;60.85;96518.16;10455570;28;20040;-73
2021/04/29 05:47:52;;;;;;;7.32;5.93;;;;;;;11.02;61.30;96526.69;10469453;28;20051;-72
2021/04/29 05:53:12;;;;;;;9.23;6.15;;;;;;;10.94;61.58;96540.28;10468570;28;20040;-73
2021/04/29 05:58:33;;;;;;;13.15;6.00;;;;;;;11.07;61.38;96531.84;10469183;28;20102;-73
2021/04/29 06:03:56;;;;;;;10.43;6.18;;;;;;;11.22;60.92;96533.22;10456082;28;20048;-73
2021/04/29 06:09:17;;;;;;;10.38;6.30;;;;;;;11.34;60.80;96538.63;10441217;28;20049;-74
2021/04/29 06:14:37;;;;;;;8.50;5.82;;;;;;;11.54;60.82;96536.72;10427726;28;20141;-73
2021/04/29 06:19:58;;;;;;;7.90;6.40;;;;;;;11.59;60.68;96521.59;10427102;28;20045;-73
2021/04/29 06:25:20;;;;;;;9.57;6.70;;;;;;;11.66;60.71;96514.91;10441124;28;20044;-73
2021/04/29 06:30:41;;;;;;;14.73;8.00;;;;;;;11.57;60.93;96543.84;10442076;28;20045;-73
2021/04/29 06:36:01;;;;;;;11.23;7.50;;;;;;;11.43;62.24;96543.22;10444873;28;20044;-73
2021/04/29 06:41:21;;;;;;;11.82;7.85;;;;;;;11.41;62.92;96545.94;10431960;28;20041;-73
2021/04/29 06:46:43;;;;;;;9.60;7.45;;;;;;;11.78;62.47;96547.56;10448567;28;20041;-73
2021/04/29 06:52:03;;;;;;;12.70;7.85;;;;;;;12.69;60.82;96561.88;10448451;28;20068;-73
2021/04/29 06:57:24;;;;;;;13.30;7.65;;;;;;;13.01;59.64;96565.94;10420586;28;20037;-74
2021/04/29 07:02:45;;;;;;;12.27;7.70;;;;;;;13.20;59.15;96563.88;10448007;28;20484;-73
2021/04/29 07:08:07;;;;;;;8.95;7.20;;;;;;;14.62;57.05;96559.84;10458241;28;20052;-73
2021/04/29 07:13:27;;;;;;;9.20;7.32;;;;;;;15.40;54.52;96572.13;10474968;28;20044;-73
2021/04/29 07:18:47;;;;;;;10.68;7.25;;;;;;;14.75;55.32;96576.44;10503393;28;20041;-73
2021/04/29 07:24:08;;;;;;;12.55;7.78;;;;;;;13.93;56.31;96584.16;10474688;28;20059;-73
2021/04/29 07:29:29;;;;;;;11.40;7.80;;;;;;;13.13;58.39;96568.53;10488242;28;20044;-73
2021/04/29 07:34:49;;;;;;;11.35;8.00;;;;;;;12.75;59.08;96576.84;10487831;28;20040;-73
2021/04/29 07:40:10;;;;;;;14.07;8.02;;;;;;;12.84;59.54;96563.88;10474241;28;20045;-73
2021/04/29 07:45:31;;;;;;;13.20;8.80;;;;;;;13.26;58.78;96570.44;10458913;28;20051;-73
2021/04/29 07:50:51;;;;;;;12.63;8.40;;;;;;;13.75;58.33;96569.47;10487536;28;20040;-73
2021/04/29 07:56:11;;;;;;;12.18;8.40;;;;;;;14.41;56.55;96567.56;10487229;28;20036;-73
2021/04/29 08:01:32;;;;;;;11.43;8.38;;;;;;;14.77;55.71;96564.56;10486984;28;20369;-73
2021/04/29 08:06:52;;;;;;;12.43;8.45;;;;;;;15.45;55.43;96559.63;10486435;28;20067;-73
2021/04/29 08:12:13;;;;;;;11.25;7.80;;;;;;;15.41;53.27;96570.75;10472693;28;20407;-73
2021/04/29 08:17:34;;;;;;;10.73;8.30;;;;;;;15.40;53.15;96574.94;10486066;28;20399;-73
2021/04/29 08:22:54;;;;;;;12.15;8.00;;;;;;;15.71;53.56;96565.31;10472415;28;20495;-73
2021/04/29 08:28:15;;;;;;;13.95;7.90;;;;;;;16.26;52.06;96564.75;10471845;28;20048;-73
2021/04/29 08:33:35;;;;;;;13.77;8.02;;;;;;;17.48;51.96;96574.75;10471685;28;20052;-73
2021/04/29 08:38:57;;;;;;;11.93;7.50;;;;;;;21.70;42.04;96585.63;10485085;28;20045;-74
2021/04/29 08:44:17;;;;;;;10.65;7.18;;;;;;;26.06;38.42;96592.31;10457390;28;20048;-74
2021/04/29 08:49:41;;;;;;;8.40;6.20;;;;;;;28.89;33.70;96585.34;10469207;28;20051;-74
2021/04/29 08:55:06;;;;;;;8.25;6.03;;;;;;;29.73;30.36;96591.94;10466891;28;20428;-75
2021/04/29 09:00:27;;;;;;;8.63;5.47;;;;;;;33.48;24.23;96600.97;10452849;28;20049;-74
2021/04/29 09:05:57;;;;;;;7.00;5.47;;;;;;;29.72;22.46;96617.09;10497130;28;20055;-73
2021/04/29 09:11:21;;;;;;;8.50;5.70;;;;;;;27.97;25.36;96612.34;10484038;28;20044;-72
2021/04/29 09:16:46;;;;;;;6.57;5.18;;;;;;;25.57;26.76;96609.91;10456432;28;20048;-72
2021/04/29 09:22:17;;;;;;;7.80;4.93;;;;;;;22.75;29.09;96615.16;10481466;28;20040;-73
2021/04/29 09:27:38;;;;;;;6.93;4.40;;;;;;;20.59;31.87;96613.81;10452401;28;20048;-72
2021/04/29 09:33:00;;;;;;;8.88;4.38;;;;;;;19.03;34.82;96610.25;10483280;28;20036;-72
2021/04/29 09:38:20;;;;;;;7.13;2.88;;;;;;;18.10;36.93;96608.53;10483366;28;20040;-73
2021/04/29 09:43:50;;;;;;;3.85;2.30;;;;;;;17.97;38.52;96607.56;10469617;28;20380;-70
2021/04/29 09:49:22;;;;;;;2.38;1.10;;;;;;;19.22;38.80;96619.03;10471744;28;20041;-73
2021/04/29 09:54:42;;;;;;;2.17;0.80;;;;;;;20.35;37.71;96608.53;10483544;28;20396;-73
2021/04/29 10:00:04;;;;;;;2.38;0.90;;;;;;;20.28;37.67;96599.28;10469121;28;20048;-73
2021/04/29 10:05:27;;;;;;;2.60;0.65;;;;;;;25.19;34.55;96600.28;10470215;28;20052;-70
2021/04/29 10:10:48;;;;;;;2.72;1.00;;;;;;;25.10;31.35;96613.19;10463320;28;20036;-72
2021/04/29 10:16:08;;;;;;;3.25;1.05;;;;;;;24.26;31.85;96607.91;10476970;28;20052;-73
2021/04/29 10:21:29;;;;;;;1.73;1.00;;;;;;;22.77;32.51;96595.25;10490864;28;20036;-72
2021/04/29 10:27:05;;;;;;;2.63;1.15;;;;;;;20.93;35.18;96602.06;10476838;28;20048;-72
2021/04/29 10:32:32;;;;;;;2.83;1.05;;;;;;;19.89;36.15;96620.03;10473681;28;20044;-73
2021/04/29 10:38:03;;;;;;;1.98;0.38;;;;;;;19.05;37.23;96621.59;10462565;28;20037;-72
2021/04/29 10:43:35;;;;;;;2.05;0.90;;;;;;;19.33;38.69;96629.13;10477097;28;20036;-73
2021/04/29 10:48:56;;;;;;;1.13;0.68;;;;;;;19.96;37.50;96638.53;10475892;28;20407;-72
2021/04/29 10:54:20;;;;;;;5.05;1.40;;;;;;;19.48;38.00;96621.53;10489750;28;20036;-73
2021/04/29 10:59:49;;;;;;;5.95;0.85;;;;;;;19.90;38.83;96622.19;10467763;28;20038;-73
2021/04/29 11:05:22;;;;;;;2.72;0.60;;;;;;;21.87;36.25;96623.34;10473038;28;20040;-72
2021/04/29 11:10:42;;;;;;;2.00;0.40;;;;;;;23.19;34.84;96608.13;10487243;28;20399;-71
2021/04/29 11:16:02;;;;;;;2.20;0.40;;;;;;;22.99;33.02;96620.94;10467031;28;20047;-72
2021/04/29 11:21:27;;;;;;;2.03;0.40;;;;;;;22.24;33.98;96615.03;10478292;28;20033;-74
2021/04/29 11:26:48;;;;;;;0.77;0.40;;;;;;;22.81;33.73;96612.34;10463977;28;20453;-72
2021/04/29 11:32:08;;;;;;;1.23;0.30;;;;;;;23.04;33.17;96605.25;10449594;28;20051;-72
2021/04/29 11:37:43;;;;;;;2.25;0.30;;;;;;;23.68;32.68;96618.06;10443948;28;20044;-72
2021/04/29 11:43:04;;;;;;;1.40;0.38;;;;;;;23.39;32.14;96596.72;10499999;28;20032;-72
2021/04/29 11:48:25;;;;;;;1.27;0.30;;;;;;;23.74;32.36;96608.81;10473516;28;20511;-74
2021/04/29 11:53:46;;;;;;;0.98;0.50;;;;;;;23.87;31.10;96604.50;10473521;28;20037;-73
2021/04/29 11:59:08;;;;;;;1.50;0.30;;;;;;;23.65;30.34;96605.25;10459197;28;20064;-73
2021/04/29 12:04:28;;;;;;;1.65;0.30;;;;;;;22.98;30.61;96613.09;10486819;28;20541;-74
2021/04/29 12:09:52;;;;;;;0.93;0.30;;;;;;;22.36;31.33;96626.44;10486968;28;20094;-75
2021/04/29 12:15:14;;;;;;;0.80;0.30;;;;;;;21.58;31.74;96628.13;10472492;28;20044;-75
2021/04/29 12:20:34;;;;;;;0.90;0.35;;;;;;;21.56;32.10;96635.94;10486267;28;20045;-75
2021/04/29 12:26:05;;;;;;;2.10;0.30;;;;;;;21.70;31.35;96628.22;10458360;28;20502;-74
2021/04/29 12:31:25;;;;;;;2.00;0.40;;;;;;;21.19;29.93;96624.28;10471493;28;20047;-75
2021/04/29 12:37:03;;;;;;;1.27;0.38;;;;;;;21.32;29.35;96636.47;10471627;28;20049;-74
2021/04/29 12:42:25;;;;;;;1.52;0.22;;;;;;;21.49;29.96;96626.66;10457760;28;20388;-74
2021/04/29 12:47:53;;;;;;;4.22;0.40;;;;;;;22.10;29.51;96621.38;10470937;28;20045;-75
2021/04/29 12:53:14;;;;;;;2.60;0.40;;;;;;;22.44;28.38;96626.47;10470903;28;20049;-74
2021/04/29 12:58:38;;;;;;;1.35;0.50;;;;;;;22.23;28.46;96616.44;10456579;28;20045;-74
2021/04/29 13:03:58;;;;;;;0.70;0.30;;;;;;;22.21;28.81;96636.34;10470727;28;20372;-74
2021/04/29 13:09:23;;;;;;;2.30;0.30;;;;;;;22.17;28.40;96613.56;10470372;28;20453;-74
2021/04/29 13:14:45;;;;;;;1.48;0.38;;;;;;;22.11;28.37;96619.25;10470130;28;20052;-74
2021/04/29 13:20:10;;;;;;;1.17;0.40;;;;;;;21.50;28.72;96621.69;10470280;28;20098;-74
2021/04/29 13:25:31;;;;;;;1.08;0.40;;;;;;;21.12;29.08;96628.47;10469903;28;20044;-75
2021/04/29 13:30:52;;;;;;;1.13;0.38;;;;;;;21.25;29.79;96621.50;10469977;28;20044;-74
2021/04/29 13:36:14;;;;;;;4.47;0.55;;;;;;;21.23;30.08;96610.13;10455409;28;20044;-74
2021/04/29 13:41:35;;;;;;;3.83;0.40;;;;;;;21.76;29.85;96601.97;10469148;28;20041;-75
2021/04/29 13:46:59;;;;;;;1.25;0.50;;;;;;;22.24;29.37;96601.53;10483918;28;20510;-76
2021/04/29 13:52:21;;;;;;;6.25;0.47;;;;;;;21.80;29.15;96590.63;10467107;28;20048;-77
2021/04/29 13:57:42;;;;;;;1.10;0.45;;;;;;;21.78;29.00;96589.91;10468980;28;20036;-76
2021/04/29 14:03:06;;;;;;;1.35;0.40;;;;;;;21.64;29.72;96587.72;10468649;28;20541;-75
2021/04/29 14:08:27;;;;;;;0.75;0.30;;;;;;;21.78;29.52;96587.78;10469555;28;20060;-76
2021/04/29 14:13:48;;;;;;;1.77;0.40;;;;;;;21.49;29.32;96586.91;10465993;28;20060;-76
2021/04/29 14:19:08;;;;;;;2.30;0.60;;;;;;;21.35;29.05;96592.50;10468483;28;20047;-75
2021/04/29 14:24:29;;;;;;;1.92;0.50;;;;;;;21.04;28.90;96591.53;10468685;28;20040;-75
2021/04/29 14:29:50;;;;;;;2.85;0.40;;;;;;;20.89;29.57;96589.97;10468255;28;20051;-75
2021/04/29 14:35:10;;;;;;;1.70;0.55;;;;;;;20.92;29.87;96582.91;10482342;28;20376;-75
2021/04/29 14:40:30;;;;;;;2.53;0.40;;;;;;;21.00;29.58;96585.81;10467811;28;20040;-75
2021/04/29 14:45:51;;;;;;;1.58;0.30;;;;;;;20.45;29.28;96583.19;10467927;28;20044;-75
2021/04/29 14:51:12;;;;;;;1.23;0.40;;;;;;;20.16;29.94;96601.94;10454224;28;20032;-75
2021/04/29 14:56:33;;;;;;;1.10;0.30;;;;;;;20.17;29.84;96588.50;10461792;28;20414;-75
2021/04/29 15:01:53;;;;;;;1.10;0.40;;;;;;;20.46;30.02;96578.97;10475359;28;20040;-75
2021/04/29 15:07:17;;;;;;;2.05;0.60;;;;;;;20.34;29.50;96589.41;10461195;28;20060;-75
2021/04/29 15:12:37;;;;;;;2.20;0.50;;;;;;;19.99;30.19;96591.84;10461605;28;20049;-74
2021/04/29 15:17:57;;;;;;;2.05;0.30;;;;;;;19.90;30.14;96582.53;10474670;28;20044;-75
2021/04/29 15:23:18;;;;;;;3.00;0.60;;;;;;;20.09;30.39;96583.47;10467955;28;20041;-75
2021/04/29 15:28:38;;;;;;;2.70;0.55;;;;;;;19.93;31.03;96605.91;10472868;28;20055;-73
2021/04/29 15:33:59;;;;;;;5.93;1.50;;;;;;;19.45;31.00;96606.66;10487447;28;20048;-75
2021/04/29 15:39:20;;;;;;;1.10;0.50;;;;;;;19.21;31.18;96586.50;10474311;28;20044;-76
2021/04/29 15:44:40;;;;;;;1.75;0.70;;;;;;;18.86;31.19;96600.06;10473857;28;20048;-76
2021/04/29 15:50:01;;;;;;;6.45;0.70;;;;;;;18.67;30.93;96606.81;10459531;28;20045;-78
2021/04/29 15:55:21;;;;;;;4.82;0.63;;;;;;;18.54;30.71;96608.66;10501164;28;20041;-75
2021/04/29 16:00:41;;;;;;;2.90;0.70;;;;;;;18.40;30.94;96628.88;10459251;28;20045;-76
2021/04/29 16:06:02;;;;;;;2.03;0.52;;;;;;;18.22;31.25;96625.69;10457600;28;20076;-75
2021/04/29 16:11:23;;;;;;;2.40;0.60;;;;;;;17.97;31.54;96642.16;10472545;28;20044;-75
2021/04/29 16:16:43;;;;;;;4.47;0.70;;;;;;;17.78;31.81;96628.34;10473097;28;20047;-76
2021/04/29 16:22:04;;;;;;;3.10;0.50;;;;;;;17.83;31.95;96633.38;10486547;28;20495;-77
2021/04/29 16:27:25;;;;;;;3.58;0.95;;;;;;;17.77;32.63;96644.56;10459064;28;20480;-75
2021/04/29 16:32:45;;;;;;;3.78;0.70;;;;;;;17.62;32.93;96643.47;10453920;28;20032;-78
2021/04/29 16:38:06;;;;;;;2.17;1.08;;;;;;;17.55;33.34;96649.66;9491882;28;10001447;-75
2021/04/29 16:43:27;;;;;;;2.88;0.70;;;;;;;17.44;34.00;96657.88;10444583;28;20499;-75
2021/04/29 16:48:49;;;;;;;3.70;1.02;;;;;;;17.27;34.10;96667.34;10416196;28;20041;-74
2021/04/29 16:54:09;;;;;;;3.92;1.25;;;;;;;16.92;34.54;96668.59;10429534;28;20041;-74
2021/04/29 16:59:30;;;;;;;1.77;0.90;;;;;;;16.52;35.84;96690.75;10443449;28;20045;-74
2021/04/29 17:04:51;;;;;;;3.85;1.00;;;;;;;16.12;35.80;96695.97;10415639;28;20052;-73
2021/04/29 17:10:12;;;;;;;8.05;1.15;;;;;;;15.91;37.76;96709.41;10415227;28;20407;-74
2021/04/29 17:15:32;;;;;;;4.43;1.45;;;;;;;15.58;38.43;96723.81;10442642;28;20048;-73
2021/04/29 17:20:53;;;;;;;4.57;1.50;;;;;;;15.32;39.89;96740.56;10442646;28;20480;-74
2021/04/29 17:26:14;;;;;;;3.90;1.60;;;;;;;15.03;40.92;96736.06;10442306;28;20526;-74
2021/04/29 17:31:37;;;;;;;5.15;2.05;;;;;;;14.76;42.73;96749.22;10428669;28;20072;-74
2021/04/29 17:36:58;;;;;;;5.13;2.22;;;;;;;14.48;44.22;96748.94;10442147;28;20493;-74
2021/04/29 17:42:19;;;;;;;4.03;1.95;;;;;;;14.23;45.10;96772.53;10428302;28;20045;-73
2021/04/29 17:47:39;;;;;;;3.42;2.35;;;;;;;14.10;44.57;96761.50;10441465;28;20048;-73
2021/04/29 17:53:00;;;;;;;5.05;2.03;;;;;;;14.01;47.02;96766.81;10428002;28;20408;-74
2021/04/29 17:58:21;;;;;;;3.85;1.88;;;;;;;13.91;47.25;96766.41;10427437;28;20396;-74
2021/04/29 18:03:48;;;;;;;4.18;2.42;;;;;;;13.74;49.39;96775.56;10429188;28;20052;-75
2021/04/29 18:09:08;;;;;;;5.25;1.65;;;;;;;13.72;48.20;96767.06;10427491;28;20065;-74
2021/04/29 18:14:29;;;;;;;4.00;1.70;;;;;;;13.68;47.72;96764.81;10427312;28;20067;-74
2021/04/29 18:19:52;;;;;;;5.85;3.08;;;;;;;13.62;48.76;96775.06;10427017;28;20041;-74
2021/04/29 18:25:12;;;;;;;6.35;3.28;;;;;;;13.59;48.82;96776.34;10441145;28;20484;-74
2021/04/29 18:30:33;;;;;;;6.55;3.95;;;;;;;13.55;50.18;96793.72;10434227;28;20041;-74
2021/04/29 18:35:54;;;;;;;6.47;4.03;;;;;;;13.44;50.96;96789.78;10449037;28;20037;-74
2021/04/29 18:41:14;;;;;;;4.47;2.08;;;;;;;13.36;50.64;96789.44;10435106;28;20041;-74
2021/04/29 18:46:35;;;;;;;5.93;2.42;;;;;;;13.29;51.74;96807.38;10434626;28;20045;-74
2021/04/29 18:51:56;;;;;;;3.60;2.17;;;;;;;13.27;51.03;96815.69;10434623;28;20037;-75
2021/04/29 18:57:28;;;;;;;4.95;2.60;;;;;;;13.23;51.10;96804.31;10436082;28;20052;-74
2021/04/29 19:02:48;;;;;;;6.47;2.60;;;;;;;13.25;51.70;96818.41;10434097;28;20070;-74
2021/04/29 19:08:09;;;;;;;3.30;2.45;;;;;;;13.22;53.12;96813.34;10434428;28;20487;-75
2021/04/29 19:13:30;;;;;;;5.95;3.05;;;;;;;13.10;52.94;96810.72;10433922;28;20052;-75
2021/04/29 19:18:51;;;;;;;5.32;2.67;;;;;;;13.04;53.65;96816.81;10433564;28;20048;-75
2021/04/29 19:24:12;;;;;;;5.32;2.83;;;;;;;12.99;54.43;96831.97;10433430;28;20049;-74
2021/04/29 19:29:33;;;;;;;5.38;2.65;;;;;;;12.90;54.31;96832.97;10419815;28;20049;-76
2021/04/29 19:34:56;;;;;;;5.80;2.80;;;;;;;12.86;54.74;96844.75;10446700;28;20381;-73
2021/04/29 19:40:17;;;;;;;6.05;2.92;;;;;;;12.83;54.77;96843.19;10446867;28;20138;-74
2021/04/29 19:45:38;;;;;;;6.25;3.35;;;;;;;12.79;54.79;96837.41;10418861;28;20056;-73
2021/04/29 19:50:59;;;;;;;9.73;3.63;;;;;;;12.77;55.47;96845.00;10432187;28;20037;-73
2021/04/29 19:56:19;;;;;;;4.72;3.22;;;;;;;12.73;55.97;96845.53;10432215;28;20041;-75
2021/04/29 20:01:40;;;;;;;4.82;3.15;;;;;;;12.63;55.59;96850.69;10404628;28;20045;-76
2021/04/29 20:07:01;;;;;;;6.32;3.40;;;;;;;12.61;56.10;96836.59;10431803;28;20068;-75
2021/04/29 20:12:22;;;;;;;10.95;4.13;;;;;;;12.63;56.58;96831.09;10445521;28;20045;-74
2021/04/29 20:17:43;;;;;;;6.53;3.53;;;;;;;12.62;56.84;96840.84;10431296;28;20048;-76
2021/04/29 20:23:04;;;;;;;9.05;4.05;;;;;;;12.56;56.72;96838.50;10445189;28;20115;-75
2021/04/29 20:28:25;;;;;;;5.80;3.13;;;;;;;12.52;56.89;96848.78;10430933;28;20388;-75
2021/04/29 20:33:46;;;;;;;9.32;3.72;;;;;;;12.47;57.02;96861.88;10444797;28;20404;-75
2021/04/29 20:39:06;;;;;;;7.35;3.78;;;;;;;12.37;56.92;96866.28;10437015;28;20381;-75
2021/04/29 20:44:26;;;;;;;9.60;3.60;;;;;;;12.24;57.42;96865.72;10405490;28;20112;-75
2021/04/29 20:49:47;;;;;;;8.73;4.43;;;;;;;12.23;58.28;96869.84;10424485;28;20046;-76
2021/04/29 20:55:09;;;;;;;8.40;4.53;;;;;;;12.25;58.19;96872.75;10413293;28;20408;-75
2021/04/29 21:00:30;;;;;;;7.75;4.38;;;;;;;12.18;57.96;96868.25;10418609;28;20049;-74
2021/04/29 21:05:51;;;;;;;11.63;4.68;;;;;;;12.14;58.04;96868.03;10424396;28;20053;-74
2021/04/29 21:11:12;;;;;;;6.82;4.18;;;;;;;12.08;58.71;96881.03;10429510;28;20511;-74
2021/04/29 21:16:33;;;;;;;6.82;4.75;;;;;;;11.98;58.92;96881.97;10429174;28;20041;-74
2021/04/29 21:21:54;;;;;;;10.50;5.03;;;;;;;11.97;58.96;96888.22;10428925;28;20443;-74
2021/04/29 21:27:15;;;;;;;8.68;4.72;;;;;;;11.91;58.83;96885.09;10428929;28;20511;-74
2021/04/29 21:32:35;;;;;;;10.52;4.85;;;;;;;11.83;59.23;96881.91;10427914;28;20049;-74
2021/04/29 21:37:58;;;;;;;9.63;4.85;;;;;;;11.80;59.48;96891.56;10428409;28;20045;-74
2021/04/29 21:43:18;;;;;;;6.88;5.18;;;;;;;11.74;58.88;96891.94;10428282;28;20049;-74
2021/04/29 21:48:38;;;;;;;7.53;4.95;;;;;;;11.62;59.08;96891.34;10441775;28;20045;-74
2021/04/29 21:53:59;;;;;;;7.05;4.60;;;;;;;11.46;60.28;96897.56;10441585;28;20040;-74
2021/04/29 21:59:19;;;;;;;7.72;4.85;;;;;;;11.39;60.31;96901.41;10441678;28;20041;-74
2021/04/29 22:04:39;;;;;;;7.13;4.65;;;;;;;11.38;59.89;96893.63;10427291;28;20037;-75
2021/04/29 22:10:00;;;;;;;6.03;4.10;;;;;;;11.35;60.48;96906.78;10427376;28;20060;-75
2021/04/29 22:15:20;;;;;;;5.85;3.50;;;;;;;11.35;60.27;96906.06;10441252;28;20041;-74
2021/04/29 22:20:41;;;;;;;6.70;3.75;;;;;;;11.36;60.01;96913.09;10427460;28;20057;-74
2021/04/29 22:26:01;;;;;;;5.60;3.50;;;;;;;11.39;59.82;96911.88;10441555;28;20379;-74
2021/04/29 22:31:22;;;;;;;5.32;3.47;;;;;;;11.42;59.85;96919.72;10440982;28;20118;-74
2021/04/29 22:36:42;;;;;;;6.57;3.80;;;;;;;11.41;59.86;96917.56;10427207;28;20120;-74
2021/04/29 22:42:03;;;;;;;6.07;3.55;;;;;;;11.40;59.44;96922.41;10441235;28;20041;-74
2021/04/29 22:47:27;;;;;;;5.75;3.67;;;;;;;11.43;59.67;96923.25;10427097;28;20499;-74
2021/04/29 22:52:49;;;;;;;5.82;3.22;;;;;;;11.37;59.87;96936.91;10427402;28;20492;-74
2021/04/29 22:58:11;;;;;;;4.68;3.28;;;;;;;11.32;59.44;96935.97;10426738;28;20056;-74
2021/04/29 23:03:31;;;;;;;7.47;3.47;;;;;;;11.28;59.58;96937.81;10426975;28;20048;-74
2021/04/29 23:08:52;;;;;;;5.18;3.65;;;;;;;11.22;60.00;96943.09;10426352;28;20060;-74
2021/04/29 23:14:12;;;;;;;7.40;3.70;;;;;;;11.17;59.68;96942.88;10415872;28;20045;-74
2021/04/29 23:19:33;;;;;;;4.80;3.67;;;;;;;11.10;60.28;96943.94;10433610;28;20095;-75
2021/04/29 23:24:54;;;;;;;5.28;3.72;;;;;;;11.04;60.54;96940.81;10433374;28;20095;-74
2021/04/29 23:30:14;;;;;;;5.22;3.40;;;;;;;10.98;60.91;96948.13;10447487;28;20396;-74
2021/04/29 23:35:35;;;;;;;6.65;3.85;;;;;;;10.96;60.33;96956.41;10432966;28;20400;-75
2021/04/29 23:40:55;;;;;;;7.32;4.00;;;;;;;10.95;60.64;96950.09;10432974;28;20040;-74
2021/04/29 23:46:15;;;;;;;6.60;3.90;;;;;;;10.89;61.01;96950.47;10446539;28;20045;-74
2021/04/29 23:51:37;;;;;;;6.53;3.63;;;;;;;10.84;61.21;96962.78;10446337;28;20037;-75
2021/04/29 23:56:58;;;;;;;8.10;4.22;;;;;;;10.81;61.38;96968.88;10432212;28;20450;-74
